Time,TemperatureF,DewpointF,PressureIn,WindDirection,WindDirectionDegrees,WindSpeedMPH,WindSpeedGustMPH,Humidity,HourlyPrecipIn,Conditions,Clouds,dailyrainin,SoftwareType,DateUTC
2013-09-16 00:01:00,80.3,76.8,29.99,ENE,67,0.9,6.9,89,0.01,RA,,0.00,WeatherDisplay:10.37,2013-09-16 04:01:00,
2013-09-16 00:06:00,80.3,76.8,29.99,ENE,67,0.1,1.2,89,0.01,RA,,0.00,WeatherDisplay:10.37,2013-09-16 04:06:00,
2013-09-16 00:11:00,80.2,76.7,29.99,ENE,67,0.9,1.2,89,0.01,CLR,,0.00,WeatherDisplay:10.37,2013-09-16 04:11:00,
2013-09-16 00:16:00,80.1,76.6,30.00,ENE,67,0.0,1.2,89,0.01,CLR,,0.00,WeatherDisplay:10.37,2013-09-16 04:16:00,
2013-09-16 00:21:00,80.1,76.9,29.99,ENE,67,0.3,1.2,90,0.01,CLR,,0.00,WeatherDisplay:10.37,2013-09-16 04:21:00,
2013-09-16 00:26:00,80.0,77.1,30.00,ENE,67,0.0,0.0,91,0.01,CLR,,0.00,WeatherDisplay:10.37,2013-09-16 04:26:00,
2013-09-16 00:31:00,80.0,77.1,29.99,ENE,67,0.0,0.0,91,0.02,RA,,0.01,WeatherDisplay:10.37,2013-09-16 04:31:00,
2013-09-16 00:36:00,79.8,77.3,29.99,ENE,67,0.2,0.0,92,0.02,RA,,0.01,WeatherDisplay:10.37,2013-09-16 04:36:00,
2013-09-16 00:41:00,79.6,77.1,29.99,ENE,67,0.0,0.0,92,0.02,CLR,,0.01,WeatherDisplay:10.37,2013-09-16 04:41:00,
2013-09-16 00:46:00,79.4,76.9,30.00,ENE,67,0.0,0.0,92,0.01,CLR,,0.01,WeatherDisplay:10.37,2013-09-16 04:46:00,
2013-09-16 00:51:00,79.3,77.1,30.00,ENE,66,0.0,0.0,93,0.02,RA,,0.02,WeatherDisplay:10.37,2013-09-16 04:51:00,
2013-09-16 00:56:00,79.1,76.9,30.00,ENE,67,0.0,0.0,93,0.02,RA,,0.02,WeatherDisplay:10.37,2013-09-16 04:56:00,
2013-09-16 01:01:00,79.1,76.9,30.00,ENE,67,0.0,0.0,93,0.02,,,0.02,WeatherDisplay:10.37,2013-09-16 05:01:00,
2013-09-16 01:06:00,78.9,77.0,30.01,ENE,67,0.0,0.0,94,0.02,CLR,,0.02,WeatherDisplay:10.37,2013-09-16 05:06:00,
2013-09-16 01:11:00,78.9,77.0,30.01,ENE,67,0.0,0.0,94,0.02,CLR,,0.02,WeatherDisplay:10.37,2013-09-16 05:11:00,
2013-09-16 01:16:00,78.8,76.9,30.00,ENE,67,0.0,0.0,94,0.02,CLR,,0.02,WeatherDisplay:10.37,2013-09-16 05:16:00,
2013-09-16 01:21:00,78.8,77.2,30.00,ENE,66,0.0,0.0,95,0.02,CLR,,0.02,WeatherDisplay:10.37,2013-09-16 05:21:00,
2013-09-16 01:26:00,78.8,77.2,30.00,ENE,66,0.0,0.0,95,0.02,CLR,,0.02,WeatherDisplay:10.37,2013-09-16 05:26:00,
2013-09-16 01:31:00,78.7,77.1,30.00,ENE,67,0.0,0.0,95,0.01,CLR,,0.02,WeatherDisplay:10.37,2013-09-16 05:31:00,
2013-09-16 01:36:00,78.7,77.1,30.00,ENE,66,0.0,0.0,95,0.01,CLR,,0.02,WeatherDisplay:10.37,2013-09-16 05:36:00,
2013-09-16 01:41:00,78.9,77.7,30.00,ENE,67,0.5,1.0,96,0.01,CLR,,0.02,WeatherDisplay:10.37,2013-09-16 05:41:00,
2013-09-16 01:46:00,78.9,77.7,30.00,ENE,66,0.0,0.0,96,0.01,CLR,,0.02,WeatherDisplay:10.37,2013-09-16 05:46:00,
2013-09-16 01:51:00,78.8,77.6,30.00,ENE,67,0.0,0.0,96,0.00,CLR,,0.02,WeatherDisplay:10.37,2013-09-16 05:51:00,
2013-09-16 01:56:00,78.7,77.1,30.00,ENE,67,0.0,0.0,95,0.00,CLR,,0.02,WeatherDisplay:10.37,2013-09-16 05:56:00,
2013-09-16 02:01:00,78.6,77.4,30.00,ENE,66,0.0,0.0,96,0.00,CLR,,0.02,WeatherDisplay:10.37,2013-09-16 06:01:00,
2013-09-16 02:06:00,78.6,77.4,30.00,ENE,66,0.0,0.0,96,0.00,CLR,,0.02,WeatherDisplay:10.37,2013-09-16 06:06:00,
2013-09-16 02:11:00,78.7,77.5,30.00,ENE,67,0.0,0.0,96,0.00,CLR,,0.02,WeatherDisplay:10.37,2013-09-16 06:11:00,
2013-09-16 02:16:00,78.7,77.5,30.00,ENE,67,0.0,0.0,96,0.00,CLR,,0.02,WeatherDisplay:10.37,2013-09-16 06:16:00,
2013-09-16 02:21:00,78.4,77.2,29.99,ENE,67,0.0,0.0,96,0.00,CLR,,0.02,WeatherDisplay:10.37,2013-09-16 06:21:00,
2013-09-16 02:26:00,78.2,77.0,29.99,ENE,66,0.0,0.0,96,0.00,CLR,,0.02,WeatherDisplay:10.37,2013-09-16 06:26:00,
2013-09-16 02:31:00,78.2,77.0,29.99,ENE,67,0.0,0.0,96,0.00,CLR,,0.02,WeatherDisplay:10.37,2013-09-16 06:31:00,
2013-09-16 02:36:00,78.1,76.9,29.99,ENE,67,0.0,0.0,96,0.00,CLR,,0.02,WeatherDisplay:10.37,2013-09-16 06:36:00,
2013-09-16 02:41:00,78.0,76.8,29.99,ENE,67,0.0,0.0,96,0.00,CLR,,0.02,WeatherDisplay:10.37,2013-09-16 06:41:00,
2013-09-16 02:47:00,78.0,76.8,29.99,ENE,67,0.0,0.0,96,0.00,CLR,,0.02,WeatherDisplay:10.37,2013-09-16 06:47:00,
2013-09-16 02:52:00,78.0,76.8,29.99,ENE,67,0.1,0.0,96,0.00,CLR,,0.02,WeatherDisplay:10.37,2013-09-16 06:52:00,
2013-09-16 02:57:00,78.0,76.8,29.99,ENE,67,0.0,0.0,96,0.00,CLR,,0.02,WeatherDisplay:10.37,2013-09-16 06:57:00,
2013-09-16 03:02:00,78.1,77.2,29.99,ENE,67,0.0,0.0,97,0.00,CLR,,0.02,WeatherDisplay:10.37,2013-09-16 07:02:00,
2013-09-16 03:07:00,78.1,77.2,29.99,ENE,67,0.0,0.0,97,0.00,CLR,,0.02,WeatherDisplay:10.37,2013-09-16 07:07:00,
2013-09-16 03:12:00,78.0,77.1,29.99,ENE,67,0.0,0.0,97,0.00,CLR,,0.02,WeatherDisplay:10.37,2013-09-16 07:12:00,
2013-09-16 03:17:00,78.0,77.1,29.99,ENE,66,0.0,0.0,97,0.00,CLR,,0.02,WeatherDisplay:10.37,2013-09-16 07:17:00,
2013-09-16 03:22:00,78.0,77.1,29.98,ENE,67,0.0,0.0,97,0.00,CLR,,0.02,WeatherDisplay:10.37,2013-09-16 07:22:00,
2013-09-16 03:27:00,78.0,77.1,29.98,ENE,67,0.0,0.0,97,0.00,CLR,,0.02,WeatherDisplay:10.37,2013-09-16 07:27:00,
2013-09-16 03:32:00,77.9,77.0,29.98,ENE,67,0.0,0.0,97,0.00,CLR,,0.02,WeatherDisplay:10.37,2013-09-16 07:32:00,
2013-09-16 03:37:00,77.7,76.5,29.98,ENE,66,0.0,0.0,96,0.00,CLR,,0.02,WeatherDisplay:10.37,2013-09-16 07:37:00,
2013-09-16 03:42:00,77.5,76.3,29.99,ENE,67,0.0,0.0,96,0.00,CLR,,0.02,WeatherDisplay:10.37,2013-09-16 07:42:00,
2013-09-16 03:47:00,77.4,76.5,29.99,ENE,66,0.0,0.0,97,0.00,CLR,,0.02,WeatherDisplay:10.37,2013-09-16 07:47:00,
2013-09-16 03:52:00,77.3,76.4,29.99,ENE,67,0.0,0.0,97,0.00,CLR,,0.02,WeatherDisplay:10.37,2013-09-16 07:52:00,
2013-09-16 03:57:00,77.3,76.4,29.99,ENE,67,0.0,0.0,97,0.00,CLR,,0.02,WeatherDisplay:10.37,2013-09-16 07:57:00,
2013-09-16 04:02:00,77.2,76.3,29.99,ENE,67,0.0,0.0,97,0.00,CLR,,0.02,WeatherDisplay:10.37,2013-09-16 08:02:00,
2013-09-16 04:07:00,77.3,76.4,29.99,ENE,67,0.0,0.0,97,0.00,CLR,,0.02,WeatherDisplay:10.37,2013-09-16 08:07:00,
2013-09-16 04:12:00,77.2,76.3,29.99,ENE,67,0.0,0.0,97,0.00,CLR,,0.02,WeatherDisplay:10.37,2013-09-16 08:12:00,
2013-09-16 04:17:00,77.2,76.3,29.99,ENE,67,0.0,0.0,97,0.00,CLR,,0.02,WeatherDisplay:10.37,2013-09-16 08:17:00,
2013-09-16 04:22:00,77.3,76.4,29.98,ENE,67,0.0,0.0,97,0.00,CLR,,0.02,WeatherDisplay:10.37,2013-09-16 08:22:00,
2013-09-16 04:27:00,77.3,76.4,29.98,ENE,67,0.0,0.0,97,0.00,CLR,,0.02,WeatherDisplay:10.37,2013-09-16 08:27:00,
2013-09-16 04:32:00,77.1,76.2,29.98,ENE,67,0.0,0.0,97,0.00,CLR,,0.02,WeatherDisplay:10.37,2013-09-16 08:32:00,
2013-09-16 04:37:00,77.1,76.2,29.98,ENE,67,0.0,0.0,97,0.00,CLR,,0.02,WeatherDisplay:10.37,2013-09-16 08:37:00,
2013-09-16 04:42:00,77.1,76.2,29.98,ENE,67,0.0,0.0,97,0.00,CLR,,0.02,WeatherDisplay:10.37,2013-09-16 08:42:00,
2013-09-16 04:47:00,77.1,76.2,29.98,ENE,67,0.0,0.0,97,0.00,CLR,,0.02,WeatherDisplay:10.37,2013-09-16 08:47:00,
2013-09-16 04:52:00,77.1,76.2,29.98,ENE,67,0.0,0.0,97,0.00,CLR,,0.02,WeatherDisplay:10.37,2013-09-16 08:52:00,
2013-09-16 04:57:00,77.1,76.2,29.98,ENE,66,0.0,0.0,97,0.00,CLR,,0.02,WeatherDisplay:10.37,2013-09-16 08:57:00,
2013-09-16 05:02:00,77.2,76.3,29.97,ENE,66,0.2,1.2,97,0.00,CLR,,0.02,WeatherDisplay:10.37,2013-09-16 09:02:00,
2013-09-16 05:07:00,77.2,76.3,29.97,ENE,66,0.0,0.0,97,0.00,CLR,,0.02,WeatherDisplay:10.37,2013-09-16 09:07:00,
2013-09-16 05:12:00,77.3,76.4,29.98,ENE,67,0.0,0.0,97,0.00,CLR,,0.02,WeatherDisplay:10.37,2013-09-16 09:12:00,
2013-09-16 05:17:00,77.3,76.7,29.98,ENE,67,0.3,1.2,98,0.00,CLR,,0.02,WeatherDisplay:10.37,2013-09-16 09:17:00,
2013-09-16 05:22:00,77.4,76.8,29.98,ENE,67,0.0,0.0,98,0.00,CLR,,0.02,WeatherDisplay:10.37,2013-09-16 09:22:00,
2013-09-16 05:27:00,77.5,76.9,29.99,ENE,67,0.0,0.0,98,0.00,CLR,,0.02,WeatherDisplay:10.37,2013-09-16 09:27:00,
2013-09-16 05:32:00,77.4,76.8,29.98,ENE,67,0.0,0.0,98,0.00,CLR,,0.02,WeatherDisplay:10.37,2013-09-16 09:32:00,
2013-09-16 05:37:00,77.4,76.8,29.97,ENE,67,0.1,0.0,98,0.00,CLR,,0.02,WeatherDisplay:10.37,2013-09-16 09:37:00,
2013-09-16 05:42:00,77.4,76.8,29.98,ENE,67,0.2,0.0,98,0.00,CLR,,0.02,WeatherDisplay:10.37,2013-09-16 09:42:00,
2013-09-16 05:47:00,77.8,77.2,29.98,ENE,67,1.5,3.5,98,0.00,CLR,,0.02,WeatherDisplay:10.37,2013-09-16 09:47:00,
2013-09-16 05:52:00,78.0,77.4,29.97,ENE,66,1.1,3.5,98,0.00,CLR,,0.02,WeatherDisplay:10.37,2013-09-16 09:52:00,
2013-09-16 05:57:00,78.1,77.5,29.97,NNE,26,0.5,2.3,98,0.00,CLR,,0.02,WeatherDisplay:10.37,2013-09-16 09:57:00,
2013-09-16 06:02:00,78.0,77.4,29.97,North,5,0.8,2.3,98,0.00,CLR,,0.02,WeatherDisplay:10.37,2013-09-16 10:02:00,
2013-09-16 06:07:00,78.0,77.1,29.97,North,5,1.5,3.5,97,0.00,CLR,,0.02,WeatherDisplay:10.37,2013-09-16 10:07:00,
2013-09-16 06:12:00,78.0,77.1,29.97,NNW,332,0.5,2.3,97,0.00,CLR,,0.02,WeatherDisplay:10.37,2013-09-16 10:12:00,
2013-09-16 06:17:00,78.2,77.3,29.98,NNE,24,1.6,3.5,97,0.00,CLR,,0.02,WeatherDisplay:10.37,2013-09-16 10:17:00,
2013-09-16 06:22:00,78.5,77.6,29.97,NNE,15,1.2,2.3,97,0.00,CLR,,0.02,WeatherDisplay:10.37,2013-09-16 10:22:00,
2013-09-16 06:27:00,78.5,77.6,29.97,NNE,25,2.5,3.5,97,0.00,CLR,,0.02,WeatherDisplay:10.37,2013-09-16 10:27:00,
2013-09-16 06:32:00,78.6,77.7,29.98,NNE,25,2.7,3.5,97,0.00,CLR,,0.02,WeatherDisplay:10.37,2013-09-16 10:32:00,
2013-09-16 06:37:00,78.7,77.5,29.97,NNE,25,1.2,1.2,96,0.00,CLR,,0.02,WeatherDisplay:10.37,2013-09-16 10:37:00,
2013-09-16 06:43:00,78.7,77.5,29.98,NNE,27,1.2,3.5,96,0.00,CLR,,0.02,WeatherDisplay:10.37,2013-09-16 10:43:00,
2013-09-16 06:48:00,78.8,77.6,29.98,NNE,27,1.7,3.5,96,0.00,CLR,,0.02,WeatherDisplay:10.37,2013-09-16 10:48:00,
2013-09-16 06:53:00,78.9,77.7,29.98,ENE,65,1.7,4.6,96,0.00,CLR,,0.02,WeatherDisplay:10.37,2013-09-16 10:53:00,
2013-09-16 06:58:00,78.8,77.2,29.98,ENE,75,4.3,4.3,95,0.00,CLR,,0.02,WeatherDisplay:10.37,2013-09-16 10:58:00,
2013-09-16 07:03:00,78.9,76.4,29.98,ENE,74,4.0,6.9,92,0.00,CLR,,0.02,WeatherDisplay:10.37,2013-09-16 11:03:00,
2013-09-16 07:08:00,78.9,76.0,29.98,ENE,69,1.9,2.3,91,0.00,CLR,,0.02,WeatherDisplay:10.37,2013-09-16 11:08:00,
2013-09-16 07:13:00,79.0,76.1,29.98,ENE,65,1.1,3.5,91,0.00,CLR,,0.02,WeatherDisplay:10.37,2013-09-16 11:13:00,
2013-09-16 07:18:00,79.0,76.1,29.98,ENE,65,0.4,1.2,91,0.00,CLR,,0.02,WeatherDisplay:10.37,2013-09-16 11:18:00,
2013-09-16 07:23:00,79.0,76.1,29.98,ENE,62,1.2,4.6,91,0.00,CLR,,0.02,WeatherDisplay:10.37,2013-09-16 11:23:00,
2013-09-16 07:28:00,79.3,76.1,29.99,ESE,116,5.6,8.0,90,0.00,CLR,,0.02,WeatherDisplay:10.37,2013-09-16 11:28:00,
2013-09-16 07:33:00,79.6,76.4,29.98,NE,47,3.4,6.9,90,0.00,CLR,,0.02,WeatherDisplay:10.37,2013-09-16 11:33:00,
2013-09-16 07:38:00,79.7,76.5,29.98,ENE,77,5.1,9.2,90,0.00,CLR,,0.02,WeatherDisplay:10.37,2013-09-16 11:38:00,
2013-09-16 07:43:00,79.7,76.2,29.99,ESE,110,5.1,8.1,89,0.00,CLR,,0.02,WeatherDisplay:10.37,2013-09-16 11:43:00,
2013-09-16 07:48:00,79.6,76.1,29.99,East,89,5.6,8.1,89,0.00,CLR,,0.02,WeatherDisplay:10.37,2013-09-16 11:48:00,
2013-09-16 07:53:00,79.6,76.1,29.99,ENE,60,1.7,3.5,89,0.00,CLR,,0.02,WeatherDisplay:10.37,2013-09-16 11:53:00,
2013-09-16 07:58:00,79.6,76.1,29.99,ENE,68,3.4,4.6,89,0.00,CLR,,0.02,WeatherDisplay:10.37,2013-09-16 11:58:00,
2013-09-16 08:03:00,79.6,76.1,29.99,ENE,74,2.7,3.5,89,0.00,CLR,,0.02,WeatherDisplay:10.37,2013-09-16 12:03:00,
2013-09-16 08:08:00,79.6,76.1,29.99,ENE,74,1.1,2.3,89,0.00,CLR,,0.02,WeatherDisplay:10.37,2013-09-16 12:08:00,
2013-09-16 08:13:00,79.7,76.2,29.99,ENE,78,0.1,1.2,89,0.00,CLR,,0.02,WeatherDisplay:10.37,2013-09-16 12:13:00,
2013-09-16 08:18:00,80.0,76.8,29.99,ENE,77,1.7,3.5,90,0.00,CLR,,0.02,WeatherDisplay:10.37,2013-09-16 12:18:00,
2013-09-16 08:23:00,80.2,76.3,30.00,ENE,77,0.0,0.0,88,0.00,CLR,,0.02,WeatherDisplay:10.37,2013-09-16 12:23:00,
2013-09-16 08:28:00,80.4,76.9,30.00,ENE,76,0.2,1.2,89,0.00,CLR,,0.02,WeatherDisplay:10.37,2013-09-16 12:28:00,
2013-09-16 08:33:00,80.5,76.6,30.00,ENE,75,1.6,3.5,88,0.00,CLR,,0.02,WeatherDisplay:10.37,2013-09-16 12:33:00,
2013-09-16 08:38:00,80.7,76.8,30.00,ENE,75,1.9,3.5,88,0.00,CLR,,0.02,WeatherDisplay:10.37,2013-09-16 12:38:00,
2013-09-16 08:43:00,80.9,77.4,30.01,ENE,77,0.0,0.0,89,0.00,CLR,,0.02,WeatherDisplay:10.37,2013-09-16 12:43:00,
2013-09-16 08:48:00,81.2,77.6,30.01,ENE,77,0.0,1.2,89,0.00,CLR,,0.02,WeatherDisplay:10.37,2013-09-16 12:48:00,
2013-09-16 08:53:00,82.0,78.1,30.00,ENE,77,1.6,3.5,88,0.00,CLR,,0.02,WeatherDisplay:10.37,2013-09-16 12:53:00,
2013-09-16 08:58:00,82.8,78.5,30.00,ENE,77,1.4,2.3,87,0.00,CLR,,0.02,WeatherDisplay:10.37,2013-09-16 12:58:00,
2013-09-16 09:03:00,83.2,78.6,30.00,ENE,77,0.6,2.3,86,0.00,CLR,,0.02,WeatherDisplay:10.37,2013-09-16 13:03:00,
2013-09-16 09:08:00,83.2,78.2,30.01,ESE,103,3.9,5.8,85,0.00,CLR,,0.02,WeatherDisplay:10.37,2013-09-16 13:08:00,
2013-09-16 09:13:00,82.8,77.8,30.01,ENE,63,2.5,3.5,85,0.00,CLR,,0.02,WeatherDisplay:10.37,2013-09-16 13:13:00,
2013-09-16 09:18:00,82.5,77.5,30.01,NNE,26,3.5,10.0,85,0.00,CLR,,0.02,WeatherDisplay:10.37,2013-09-16 13:18:00,
2013-09-16 09:23:00,82.3,77.0,30.01,ENE,74,7.3,9.2,84,0.00,CLR,,0.02,WeatherDisplay:10.37,2013-09-16 13:23:00,
2013-09-16 09:28:00,82.2,76.9,30.01,ESE,102,4.4,9.2,84,0.00,CLR,,0.02,WeatherDisplay:10.37,2013-09-16 13:28:00,
2013-09-16 09:33:00,82.1,76.8,30.01,East,90,3.9,3.9,84,0.00,CLR,,0.02,WeatherDisplay:10.37,2013-09-16 13:33:00,
2013-09-16 09:38:00,82.1,77.1,30.01,NE,48,3.7,8.1,85,0.00,CLR,,0.02,WeatherDisplay:10.37,2013-09-16 13:38:00,
2013-09-16 09:43:00,82.1,77.1,30.02,ENE,69,4.8,10.4,85,0.00,CLR,,0.02,WeatherDisplay:10.37,2013-09-16 13:43:00,
2013-09-16 09:48:00,82.2,77.2,30.02,NE,50,3.2,4.6,85,0.00,CLR,,0.02,WeatherDisplay:10.37,2013-09-16 13:48:00,
2013-09-16 09:53:00,82.2,77.2,30.02,ESE,108,5.5,8.1,85,0.00,CLR,,0.02,WeatherDisplay:10.37,2013-09-16 13:53:00,
2013-09-16 09:58:00,82.3,77.3,30.02,ENE,78,5.0,5.0,85,0.00,CLR,,0.02,WeatherDisplay:10.37,2013-09-16 13:58:00,
2013-09-16 10:03:00,82.3,77.3,30.02,East,79,5.1,9.2,85,0.00,CLR,,0.02,WeatherDisplay:10.37,2013-09-16 14:03:00,
2013-09-16 10:08:00,82.3,77.3,30.01,East,88,5.0,9.2,85,0.00,CLR,,0.02,WeatherDisplay:10.37,2013-09-16 14:08:00,
2013-09-16 10:13:00,82.2,77.2,30.02,East,88,5.7,9.2,85,0.00,CLR,,0.02,WeatherDisplay:10.37,2013-09-16 14:13:00,
2013-09-16 10:18:00,81.9,76.9,30.02,East,95,4.8,8.1,85,0.00,CLR,,0.02,WeatherDisplay:10.37,2013-09-16 14:18:00,
2013-09-16 10:23:00,81.6,77.0,30.03,ESE,120,4.8,6.9,86,0.00,CLR,,0.02,WeatherDisplay:10.37,2013-09-16 14:23:00,
2013-09-16 10:28:00,81.3,76.7,30.03,SSE,152,3.4,6.0,86,0.00,CLR,,0.02,WeatherDisplay:10.37,2013-09-16 14:28:00,
2013-09-16 10:33:00,81.1,76.9,30.03,SE,127,4.5,6.0,87,0.00,CLR,,0.02,WeatherDisplay:10.37,2013-09-16 14:33:00,
2013-09-16 10:38:00,81.0,76.8,30.03,SSE,153,3.6,4.6,87,0.00,CLR,,0.02,WeatherDisplay:10.37,2013-09-16 14:38:00,
2013-09-16 10:43:00,81.0,76.8,30.03,SE,128,1.6,3.5,87,0.00,CLR,,0.02,WeatherDisplay:10.37,2013-09-16 14:43:00,
2013-09-16 10:48:00,81.0,76.8,30.04,SE,144,2.2,3.5,87,0.00,CLR,,0.02,WeatherDisplay:10.37,2013-09-16 14:48:00,
2013-09-16 10:53:00,80.9,76.7,30.04,SSE,148,8.4,11.5,87,0.00,CLR,,0.02,WeatherDisplay:10.37,2013-09-16 14:53:00,
2013-09-16 10:58:00,80.2,74.9,30.03,South,180,8.5,8.5,84,0.00,CLR,,0.02,WeatherDisplay:10.37,2013-09-16 14:58:00,
2013-09-16 11:03:00,79.4,74.1,30.03,SE,135,2.9,3.5,84,0.00,CLR,,0.02,WeatherDisplay:10.37,2013-09-16 15:03:00,
2013-09-16 11:08:00,78.8,73.2,30.03,SSE,156,5.1,8.1,83,0.00,CLR,,0.02,WeatherDisplay:10.37,2013-09-16 15:08:00,
2013-09-16 11:13:00,78.3,73.1,30.03,SE,143,5.4,6.9,84,0.00,CLR,,0.02,WeatherDisplay:10.37,2013-09-16 15:13:00,
2013-09-16 11:18:00,77.8,72.6,30.03,ESE,108,7.7,8.1,84,0.00,CLR,,0.02,WeatherDisplay:10.37,2013-09-16 15:18:00,
2013-09-16 11:23:00,77.5,72.6,30.03,SE,139,2.2,3.5,85,0.00,CLR,,0.02,WeatherDisplay:10.37,2013-09-16 15:23:00,
2013-09-16 11:28:00,77.5,72.6,30.03,SE,140,1.0,3.5,85,0.00,CLR,,0.02,WeatherDisplay:10.37,2013-09-16 15:28:00,
2013-09-16 11:33:00,77.6,72.7,30.02,SE,140,1.7,3.5,85,0.00,CLR,,0.02,WeatherDisplay:10.37,2013-09-16 15:33:00,
2013-09-16 11:38:00,77.7,72.5,30.03,SE,140,1.9,2.3,84,0.00,CLR,,0.02,WeatherDisplay:10.37,2013-09-16 15:38:00,
2013-09-16 11:43:00,77.8,72.9,30.03,SE,140,0.4,2.3,85,0.00,CLR,,0.02,WeatherDisplay:10.37,2013-09-16 15:43:00,
2013-09-16 11:48:00,78.1,73.2,30.02,SE,140,0.4,2.3,85,0.00,CLR,,0.02,WeatherDisplay:10.37,2013-09-16 15:48:00,
2013-09-16 11:53:00,78.4,73.9,30.02,SE,140,3.4,3.4,86,0.00,CLR,,0.02,WeatherDisplay:10.37,2013-09-16 15:53:00,
2013-09-16 11:58:00,78.8,74.6,30.02,SE,126,1.3,2.3,87,0.00,CLR,,0.02,WeatherDisplay:10.37,2013-09-16 15:58:00,
2013-09-16 12:03:00,79.3,75.4,30.02,SSE,159,2.3,5.0,88,0.00,CLR,,0.02,WeatherDisplay:10.37,2013-09-16 16:03:00,
2013-09-16 12:08:00,79.7,75.8,30.02,SE,131,1.9,4.6,88,0.00,CLR,,0.02,WeatherDisplay:10.37,2013-09-16 16:08:00,
2013-09-16 12:13:00,79.8,75.9,30.02,SSE,167,3.3,3.3,88,0.00,CLR,,0.02,WeatherDisplay:10.37,2013-09-16 16:13:00,
2013-09-16 12:18:00,79.9,76.4,30.02,SE,128,6.0,6.0,89,0.00,CLR,,0.02,WeatherDisplay:10.37,2013-09-16 16:18:00,
2013-09-16 12:24:00,79.7,76.5,30.02,SE,130,3.4,5.0,90,0.00,CLR,,0.02,WeatherDisplay:10.37,2013-09-16 16:24:00,
2013-09-16 12:29:00,79.5,76.3,30.02,ESE,109,4.4,9.2,90,0.00,CLR,,0.02,WeatherDisplay:10.37,2013-09-16 16:29:00,
2013-09-16 12:34:00,79.5,76.3,30.02,ENE,73,6.8,6.9,90,0.00,CLR,,0.02,WeatherDisplay:10.37,2013-09-16 16:34:00,
2013-09-16 12:39:00,79.7,76.5,30.02,ESE,111,2.5,3.5,90,0.00,CLR,,0.02,WeatherDisplay:10.37,2013-09-16 16:39:00,
2013-09-16 12:44:00,79.8,76.6,30.02,SE,138,0.0,0.0,90,0.00,CLR,,0.02,WeatherDisplay:10.37,2013-09-16 16:44:00,
2013-09-16 12:49:00,80.1,76.2,30.02,ENE,60,4.0,5.8,88,0.00,CLR,,0.02,WeatherDisplay:10.37,2013-09-16 16:49:00,
2013-09-16 12:54:00,80.3,76.4,30.02,ENE,57,2.9,8.1,88,0.00,CLR,,0.02,WeatherDisplay:10.37,2013-09-16 16:54:00,
2013-09-16 12:59:00,80.5,77.0,30.02,East,88,1.8,4.6,89,0.00,CLR,,0.02,WeatherDisplay:10.37,2013-09-16 16:59:00,
2013-09-16 13:04:00,80.7,77.2,30.02,ESE,105,2.3,4.0,89,0.00,CLR,,0.02,WeatherDisplay:10.37,2013-09-16 17:04:00,
2013-09-16 13:09:00,80.7,76.8,30.02,East,85,1.5,1.5,88,0.00,CLR,,0.02,WeatherDisplay:10.37,2013-09-16 17:09:00,
2013-09-16 13:14:00,80.8,76.2,30.02,ESE,107,5.2,8.1,86,0.00,CLR,,0.02,WeatherDisplay:10.37,2013-09-16 17:14:00,
2013-09-16 13:19:00,80.7,76.1,30.02,ESE,110,4.6,9.2,86,0.00,CLR,,0.02,WeatherDisplay:10.37,2013-09-16 17:19:00,
2013-09-16 13:24:00,80.7,75.8,30.02,SSE,168,2.9,4.6,85,0.00,CLR,,0.02,WeatherDisplay:10.37,2013-09-16 17:24:00,
2013-09-16 13:29:00,80.8,76.2,30.01,ESE,107,1.1,3.5,86,0.00,CLR,,0.02,WeatherDisplay:10.37,2013-09-16 17:29:00,
2013-09-16 13:34:00,80.7,75.8,30.01,SE,130,2.1,3.5,85,0.00,CLR,,0.02,WeatherDisplay:10.37,2013-09-16 17:34:00,
2013-09-16 13:39:00,80.7,75.8,30.00,SE,132,1.9,3.5,85,0.00,CLR,,0.02,WeatherDisplay:10.37,2013-09-16 17:39:00,
2013-09-16 13:44:00,80.8,75.5,30.00,SE,136,2.3,3.5,84,0.00,CLR,,0.02,WeatherDisplay:10.37,2013-09-16 17:44:00,
2013-09-16 13:49:00,80.8,75.5,29.99,SE,131,3.1,4.6,84,0.00,CLR,,0.02,WeatherDisplay:10.37,2013-09-16 17:49:00,
2013-09-16 13:54:00,80.9,75.6,29.99,SE,131,1.9,3.5,84,0.00,CLR,,0.02,WeatherDisplay:10.37,2013-09-16 17:54:00,
2013-09-16 13:59:00,81.0,75.7,29.99,East,98,2.0,4.6,84,0.00,CLR,,0.02,WeatherDisplay:10.37,2013-09-16 17:59:00,
2013-09-16 14:04:00,81.1,75.8,29.99,East,98,2.9,5.8,84,0.00,CLR,,0.02,WeatherDisplay:10.37,2013-09-16 18:04:00,
2013-09-16 14:09:00,81.2,75.9,29.99,East,97,2.2,4.6,84,0.00,CLR,,0.02,WeatherDisplay:10.37,2013-09-16 18:09:00,
2013-09-16 14:14:00,81.3,76.4,29.98,East,90,1.3,3.5,85,0.00,CLR,,0.02,WeatherDisplay:10.37,2013-09-16 18:14:00,
2013-09-16 14:19:00,81.5,76.6,29.98,East,86,1.3,2.3,85,0.00,CLR,,0.02,WeatherDisplay:10.37,2013-09-16 18:19:00,
2013-09-16 14:24:00,81.6,76.6,29.98,SE,126,5.3,6.9,85,0.00,CLR,,0.02,WeatherDisplay:10.37,2013-09-16 18:24:00,
2013-09-16 14:29:00,81.8,76.5,29.98,ENE,76,5.8,10.4,84,0.00,CLR,,0.02,WeatherDisplay:10.37,2013-09-16 18:29:00,
2013-09-16 14:34:00,81.9,76.9,29.98,East,88,4.7,6.9,85,0.00,CLR,,0.02,WeatherDisplay:10.37,2013-09-16 18:34:00,
2013-09-16 14:39:00,82.0,76.7,29.98,NE,49,4.2,6.9,84,0.00,CLR,,0.02,WeatherDisplay:10.37,2013-09-16 18:39:00,
2013-09-16 14:44:00,82.1,76.1,29.98,East,93,3.4,5.8,82,0.00,CLR,,0.02,WeatherDisplay:10.37,2013-09-16 18:44:00,
2013-09-16 14:49:00,82.1,75.7,29.98,ENE,65,3.1,8.1,81,0.00,CLR,,0.02,WeatherDisplay:10.37,2013-09-16 18:49:00,
2013-09-16 14:54:00,82.1,75.3,29.98,ENE,74,3.2,4.6,80,0.00,CLR,,0.02,WeatherDisplay:10.37,2013-09-16 18:54:00,
2013-09-16 14:59:00,82.2,75.8,29.97,East,81,0.4,1.2,81,0.00,CLR,,0.02,WeatherDisplay:10.37,2013-09-16 18:59:00,
2013-09-16 15:04:00,82.4,76.0,29.97,East,82,0.2,2.3,81,0.00,CLR,,0.02,WeatherDisplay:10.37,2013-09-16 19:04:00,
2013-09-16 15:09:00,82.4,76.0,29.97,East,95,1.0,3.5,81,0.00,CLR,,0.02,WeatherDisplay:10.37,2013-09-16 19:09:00,
2013-09-16 15:14:00,82.4,76.0,29.96,East,92,1.5,3.5,81,0.00,CLR,,0.02,WeatherDisplay:10.37,2013-09-16 19:14:00,
2013-09-16 15:19:00,82.4,76.0,29.96,East,92,0.5,1.2,81,0.00,CLR,,0.02,WeatherDisplay:10.37,2013-09-16 19:19:00,
2013-09-16 15:24:00,82.3,76.3,29.96,East,91,0.8,2.3,82,0.00,CLR,,0.02,WeatherDisplay:10.37,2013-09-16 19:24:00,
2013-09-16 15:29:00,82.1,76.8,29.96,ENE,74,3.0,4.6,84,0.00,CLR,,0.02,WeatherDisplay:10.37,2013-09-16 19:29:00,
2013-09-16 15:34:00,81.7,77.1,29.96,North,9,1.8,2.3,86,0.00,CLR,,0.02,WeatherDisplay:10.37,2013-09-16 19:34:00,
2013-09-16 15:39:00,81.3,77.1,29.96,NNE,22,3.8,5.8,87,0.00,CLR,,0.02,WeatherDisplay:10.37,2013-09-16 19:39:00,
2013-09-16 15:44:00,81.0,76.8,29.96,NNE,14,3.4,6.9,87,0.00,CLR,,0.02,WeatherDisplay:10.37,2013-09-16 19:44:00,
2013-09-16 15:49:00,80.6,76.7,29.96,NNW,347,3.7,6.9,88,0.00,CLR,,0.02,WeatherDisplay:10.37,2013-09-16 19:49:00,
2013-09-16 15:54:00,80.4,76.5,29.96,NNW,343,3.0,5.8,88,0.00,CLR,,0.02,WeatherDisplay:10.37,2013-09-16 19:54:00,
2013-09-16 15:59:00,80.2,76.3,29.96,NNW,334,4.3,5.8,88,0.00,CLR,,0.02,WeatherDisplay:10.37,2013-09-16 19:59:00,
2013-09-16 16:04:00,80.1,76.2,29.96,North,360,3.0,4.6,88,0.00,CLR,,0.02,WeatherDisplay:10.37,2013-09-16 20:04:00,
2013-09-16 16:09:00,80.1,76.2,29.96,North,5,3.0,4.6,88,0.00,CLR,,0.02,WeatherDisplay:10.37,2013-09-16 20:09:00,
2013-09-16 16:14:00,80.1,76.2,29.97,NW,321,2.7,5.8,88,0.00,CLR,,0.02,WeatherDisplay:10.37,2013-09-16 20:14:00,
2013-09-16 16:19:00,80.1,76.2,29.96,NNW,346,3.6,4.6,88,0.00,CLR,,0.02,WeatherDisplay:10.37,2013-09-16 20:19:00,
2013-09-16 16:24:00,80.1,76.2,29.96,NNW,348,2.9,6.9,88,0.00,CLR,,0.02,WeatherDisplay:10.37,2013-09-16 20:24:00,
2013-09-16 16:29:00,80.2,76.3,29.96,NE,37,2.6,4.6,88,0.00,CLR,,0.02,WeatherDisplay:10.37,2013-09-16 20:29:00,
2013-09-16 16:34:00,80.3,76.4,29.96,NNE,20,1.2,3.5,88,0.00,CLR,,0.02,WeatherDisplay:10.37,2013-09-16 20:34:00,
2013-09-16 16:39:00,80.4,76.5,29.96,NNW,348,3.9,6.9,88,0.00,CLR,,0.02,WeatherDisplay:10.37,2013-09-16 20:39:00,
2013-09-16 16:44:00,80.4,76.5,29.96,North,10,2.6,5.8,88,0.00,CLR,,0.02,WeatherDisplay:10.37,2013-09-16 20:44:00,
2013-09-16 16:49:00,80.5,76.6,29.96,NNW,335,4.2,6.0,88,0.00,CLR,,0.02,WeatherDisplay:10.37,2013-09-16 20:49:00,
2013-09-16 16:54:00,80.6,76.7,29.96,NNW,340,3.9,5.8,88,0.00,CLR,,0.02,WeatherDisplay:10.37,2013-09-16 20:54:00,
2013-09-16 16:59:00,80.7,76.8,29.96,North,355,3.6,3.6,88,0.00,CLR,,0.02,WeatherDisplay:10.37,2013-09-16 20:59:00,
2013-09-16 17:04:00,80.8,76.6,29.95,NNW,330,1.7,5.8,87,0.00,CLR,,0.02,WeatherDisplay:10.37,2013-09-16 21:04:00,
2013-09-16 17:09:00,80.8,75.5,29.95,North,351,3.7,7.0,84,0.00,CLR,,0.02,WeatherDisplay:10.37,2013-09-16 21:09:00,
2013-09-16 17:14:00,80.9,74.9,29.95,NNE,13,5.2,7.0,82,0.00,CLR,,0.02,WeatherDisplay:10.37,2013-09-16 21:14:00,
2013-09-16 17:19:00,81.0,74.6,29.95,North,360,1.3,3.5,81,0.00,CLR,,0.02,WeatherDisplay:10.37,2013-09-16 21:19:00,
2013-09-16 17:24:00,80.9,74.1,29.95,NNE,32,7.2,10.4,80,0.00,CLR,,0.02,WeatherDisplay:10.37,2013-09-16 21:24:00,
2013-09-16 17:29:00,81.0,74.6,29.95,NE,34,6.9,10.4,81,0.00,CLR,,0.02,WeatherDisplay:10.37,2013-09-16 21:29:00,
2013-09-16 17:34:00,81.0,74.6,29.95,NNE,16,4.4,8.1,81,0.00,CLR,,0.02,WeatherDisplay:10.37,2013-09-16 21:34:00,
2013-09-16 17:39:00,81.0,74.6,29.95,NNW,342,3.0,4.6,81,0.00,CLR,,0.02,WeatherDisplay:10.37,2013-09-16 21:39:00,
2013-09-16 17:44:00,81.0,74.6,29.95,North,11,4.0,5.8,81,0.00,CLR,,0.02,WeatherDisplay:10.37,2013-09-16 21:44:00,
2013-09-16 17:49:00,81.0,73.9,29.95,NE,35,5.2,8.1,79,0.00,CLR,,0.02,WeatherDisplay:10.37,2013-09-16 21:49:00,
2013-09-16 17:54:00,81.0,74.2,29.95,NE,34,2.6,4.6,80,0.00,CLR,,0.02,WeatherDisplay:10.37,2013-09-16 21:54:00,
2013-09-16 17:59:00,80.9,74.1,29.94,NE,48,4.0,5.8,80,0.00,CLR,,0.02,WeatherDisplay:10.37,2013-09-16 21:59:00,
2013-09-16 18:04:00,80.9,74.1,29.94,NE,47,3.6,3.6,80,0.00,CLR,,0.02,WeatherDisplay:10.37,2013-09-16 22:04:00,
2013-09-16 18:09:00,80.8,74.4,29.94,ENE,61,2.9,7.0,81,0.00,CLR,,0.02,WeatherDisplay:10.37,2013-09-16 22:09:00,
2013-09-16 18:14:00,80.8,75.2,29.94,NNE,26,6.0,9.2,83,0.00,CLR,,0.02,WeatherDisplay:10.37,2013-09-16 22:14:00,
2013-09-16 18:19:00,80.7,75.4,29.94,North,360,5.2,9.2,84,0.00,CLR,,0.02,WeatherDisplay:10.37,2013-09-16 22:19:00,
2013-09-16 18:24:00,80.6,75.3,29.94,ENE,57,3.3,3.5,84,0.00,CLR,,0.02,WeatherDisplay:10.37,2013-09-16 22:24:00,
2013-09-16 18:29:00,80.5,75.6,29.95,NNE,24,4.2,6.9,85,0.00,CLR,,0.02,WeatherDisplay:10.37,2013-09-16 22:29:00,
2013-09-16 18:35:00,80.4,75.5,29.95,NE,42,4.2,4.6,85,0.00,CLR,,0.02,WeatherDisplay:10.37,2013-09-16 22:35:00,
2013-09-16 18:40:00,80.4,75.8,29.95,NNE,32,4.1,6.9,86,0.00,CLR,,0.02,WeatherDisplay:10.37,2013-09-16 22:40:00,
2013-09-16 18:45:00,80.3,75.7,29.95,NE,46,1.9,4.6,86,0.00,CLR,,0.02,WeatherDisplay:10.37,2013-09-16 22:45:00,
2013-09-16 18:50:00,80.3,75.7,29.95,NNE,27,2.3,3.5,86,0.00,CLR,,0.02,WeatherDisplay:10.37,2013-09-16 22:50:00,
2013-09-16 18:55:00,80.3,75.4,29.95,ENE,62,1.6,4.6,85,0.00,CLR,,0.02,WeatherDisplay:10.37,2013-09-16 22:55:00,
2013-09-16 19:00:00,80.3,75.4,29.95,NNE,15,2.5,6.0,85,0.00,CLR,,0.02,WeatherDisplay:10.37,2013-09-16 23:00:00,
2013-09-16 19:05:00,80.2,75.3,29.95,NNE,27,2.4,2.4,85,0.00,CLR,,0.02,WeatherDisplay:10.37,2013-09-16 23:05:00,
2013-09-16 19:10:00,80.2,75.3,29.95,NNE,25,2.9,5.8,85,0.00,CLR,,0.02,WeatherDisplay:10.37,2013-09-16 23:10:00,
2013-09-16 19:15:00,80.1,75.2,29.96,NE,40,5.3,6.9,85,0.00,CLR,,0.02,WeatherDisplay:10.37,2013-09-16 23:15:00,
2013-09-16 19:20:00,80.1,75.5,29.96,NE,44,2.8,4.0,86,0.00,CLR,,0.02,WeatherDisplay:10.37,2013-09-16 23:20:00,
2013-09-16 19:25:00,80.0,75.4,29.96,NE,45,1.9,4.6,86,0.00,CLR,,0.02,WeatherDisplay:10.37,2013-09-16 23:25:00,
2013-09-16 19:30:00,80.0,75.4,29.96,NNE,29,2.2,3.5,86,0.00,CLR,,0.02,WeatherDisplay:10.37,2013-09-16 23:30:00,
2013-09-16 19:35:00,79.9,75.7,29.96,NNE,31,2.6,3.5,87,0.00,CLR,,0.02,WeatherDisplay:10.37,2013-09-16 23:35:00,
2013-09-16 19:40:00,79.9,75.7,29.96,NNE,28,2.0,5.0,87,0.00,CLR,,0.02,WeatherDisplay:10.37,2013-09-16 23:40:00,
2013-09-16 19:45:00,79.9,75.7,29.96,NNE,30,0.8,2.3,87,0.00,CLR,,0.02,WeatherDisplay:10.37,2013-09-16 23:45:00,
2013-09-16 19:50:00,79.8,75.2,29.96,NE,54,3.2,5.8,86,0.00,CLR,,0.02,WeatherDisplay:10.37,2013-09-16 23:50:00,
2013-09-16 19:55:00,79.8,75.2,29.97,NE,35,0.3,2.3,86,0.00,CLR,,0.02,WeatherDisplay:10.37,2013-09-16 23:55:00,
2013-09-16 20:00:00,79.8,74.9,29.96,NE,42,1.1,3.5,85,0.00,CLR,,0.02,WeatherDisplay:10.37,2013-09-17 00:00:00,
2013-09-16 20:05:00,79.8,74.9,29.96,NE,42,0.8,1.2,85,0.00,CLR,,0.02,WeatherDisplay:10.37,2013-09-17 00:05:00,
2013-09-16 20:10:00,79.9,75.0,29.97,NE,46,0.1,1.2,85,0.00,CLR,,0.02,WeatherDisplay:10.37,2013-09-17 00:10:00,
2013-09-16 20:15:00,79.8,74.9,29.97,NE,46,0.0,0.0,85,0.00,CLR,,0.02,WeatherDisplay:10.37,2013-09-17 00:15:00,
2013-09-16 20:20:00,79.9,75.0,29.97,NE,46,1.1,2.3,85,0.00,CLR,,0.02,WeatherDisplay:10.37,2013-09-17 00:20:00,
2013-09-16 20:25:00,79.9,74.6,29.97,NE,45,1.4,2.3,84,0.00,CLR,,0.02,WeatherDisplay:10.37,2013-09-17 00:25:00,
2013-09-16 20:30:00,80.0,75.1,29.97,NE,45,0.0,0.0,85,0.00,CLR,,0.02,WeatherDisplay:10.37,2013-09-17 00:30:00,
2013-09-16 20:35:00,80.0,75.1,29.97,NE,45,0.2,1.2,85,0.00,CLR,,0.02,WeatherDisplay:10.37,2013-09-17 00:35:00,
2013-09-16 20:40:00,80.0,75.4,29.97,NE,46,0.9,3.5,86,0.00,CLR,,0.02,WeatherDisplay:10.37,2013-09-17 00:40:00,
2013-09-16 20:45:00,80.0,75.4,29.97,NE,46,0.2,1.0,86,0.00,CLR,,0.02,WeatherDisplay:10.37,2013-09-17 00:45:00,
2013-09-16 20:50:00,80.1,75.5,29.97,East,88,1.6,3.5,86,0.00,CLR,,0.02,WeatherDisplay:10.37,2013-09-17 00:50:00,
2013-09-16 20:55:00,80.1,75.9,29.98,East,80,0.4,1.2,87,0.00,CLR,,0.02,WeatherDisplay:10.37,2013-09-17 00:55:00,
2013-09-16 21:00:00,80.1,75.9,29.98,East,80,0.1,1.2,87,0.00,CLR,,0.02,WeatherDisplay:10.37,2013-09-17 01:00:00,
2013-09-16 21:05:00,80.1,76.2,29.97,ENE,77,0.7,2.3,88,0.00,CLR,,0.02,WeatherDisplay:10.37,2013-09-17 01:05:00,
2013-09-16 21:10:00,80.0,76.1,29.97,NE,52,2.3,3.5,88,0.00,CLR,,0.02,WeatherDisplay:10.37,2013-09-17 01:10:00,
2013-09-16 21:15:00,80.1,76.2,29.97,NE,55,0.0,2.3,88,0.00,CLR,,0.02,WeatherDisplay:10.37,2013-09-17 01:15:00,
2013-09-16 21:20:00,80.0,76.1,29.98,NE,54,0.8,2.3,88,0.00,CLR,,0.02,WeatherDisplay:10.37,2013-09-17 01:20:00,
2013-09-16 21:25:00,80.0,76.1,29.98,NE,54,0.7,1.2,88,0.00,CLR,,0.02,WeatherDisplay:10.37,2013-09-17 01:25:00,
2013-09-16 21:30:00,79.9,76.0,29.98,NE,54,0.5,3.5,88,0.00,CLR,,0.02,WeatherDisplay:10.37,2013-09-17 01:30:00,
2013-09-16 21:35:00,79.9,76.0,29.98,NE,54,1.7,3.5,88,0.00,CLR,,0.02,WeatherDisplay:10.37,2013-09-17 01:35:00,
2013-09-16 21:40:00,79.8,75.9,29.98,NE,49,2.0,4.6,88,0.00,CLR,,0.02,WeatherDisplay:10.37,2013-09-17 01:40:00,
2013-09-16 21:45:00,79.8,75.9,29.98,NE,49,0.4,1.2,88,0.00,CLR,,0.02,WeatherDisplay:10.37,2013-09-17 01:45:00,
2013-09-16 21:50:00,79.8,75.9,29.98,NE,46,1.9,3.5,88,0.00,CLR,,0.02,WeatherDisplay:10.37,2013-09-17 01:50:00,
2013-09-16 21:55:00,79.7,75.8,29.98,NE,46,1.1,2.3,88,0.00,CLR,,0.02,WeatherDisplay:10.37,2013-09-17 01:55:00,
2013-09-16 22:00:00,79.7,75.8,29.98,NE,46,0.4,1.2,88,0.00,CLR,,0.02,WeatherDisplay:10.37,2013-09-17 02:00:00,
2013-09-16 22:05:00,79.6,76.1,29.98,NE,46,1.4,2.3,89,0.00,CLR,,0.02,WeatherDisplay:10.37,2013-09-17 02:05:00,
2013-09-16 22:10:00,79.5,76.0,29.98,NE,46,0.6,1.2,89,0.00,CLR,,0.02,WeatherDisplay:10.37,2013-09-17 02:10:00,
2013-09-16 22:15:00,79.6,76.1,29.98,NE,46,1.2,2.3,89,0.00,CLR,,0.02,WeatherDisplay:10.37,2013-09-17 02:15:00,
2013-09-16 22:20:00,79.6,76.1,29.99,NE,53,2.8,4.6,89,0.00,CLR,,0.02,WeatherDisplay:10.37,2013-09-17 02:20:00,
2013-09-16 22:25:00,79.6,76.1,29.99,East,89,2.2,3.5,89,0.00,CLR,,0.02,WeatherDisplay:10.37,2013-09-17 02:25:00,
2013-09-16 22:30:00,79.8,76.3,29.99,ENE,63,0.5,4.6,89,0.00,CLR,,0.02,WeatherDisplay:10.37,2013-09-17 02:30:00,
2013-09-16 22:43:00,79.9,76.0,29.98,NNE,30,4.4,4.6,88,0.00,CLR,,0.02,WeatherDisplay:10.37,2013-09-17 02:43:00,
2013-09-16 22:48:00,79.9,76.0,29.99,NNE,32,0.9,3.5,88,0.00,CLR,,0.02,WeatherDisplay:10.37,2013-09-17 02:48:00,
2013-09-16 22:53:00,79.8,76.3,29.98,NNE,31,2.2,2.3,89,0.00,CLR,,0.02,WeatherDisplay:10.37,2013-09-17 02:53:00,
2013-09-16 22:58:00,79.7,76.2,29.99,NNE,29,2.5,3.5,89,0.00,CLR,,0.02,WeatherDisplay:10.37,2013-09-17 02:58:00,
2013-09-16 23:03:00,79.6,76.1,29.99,NNE,29,2.0,3.5,89,0.00,CLR,,0.02,WeatherDisplay:10.37,2013-09-17 03:03:00,
2013-09-16 23:08:00,79.6,76.1,29.99,NNE,29,0.4,1.2,89,0.00,CLR,,0.02,WeatherDisplay:10.37,2013-09-17 03:08:00,
2013-09-16 23:13:00,79.6,76.1,29.99,ENE,57,1.0,2.3,89,0.00,CLR,,0.02,WeatherDisplay:10.37,2013-09-17 03:13:00,
2013-09-16 23:18:00,79.6,76.1,29.99,NE,42,2.9,3.5,89,0.00,CLR,,0.02,WeatherDisplay:10.37,2013-09-17 03:18:00,
2013-09-16 23:24:00,79.7,76.2,29.99,NE,46,3.2,4.0,89,0.00,CLR,,0.02,WeatherDisplay:10.37,2013-09-17 03:24:00,
2013-09-16 23:29:00,79.8,76.3,29.99,NE,38,1.1,3.5,89,0.00,CLR,,0.02,WeatherDisplay:10.37,2013-09-17 03:29:00,
2013-09-16 23:34:00,79.8,76.3,29.99,NNE,32,2.2,2.2,89,0.00,CLR,,0.02,WeatherDisplay:10.37,2013-09-17 03:34:00,
2013-09-16 23:39:00,79.8,76.3,29.99,ENE,57,1.3,3.5,89,0.00,CLR,,0.02,WeatherDisplay:10.37,2013-09-17 03:39:00,
2013-09-16 23:44:00,79.9,76.4,29.99,NE,51,2.9,4.6,89,0.00,CLR,,0.02,WeatherDisplay:10.37,2013-09-17 03:44:00,
2013-09-16 23:49:00,79.9,76.4,29.99,NE,50,1.2,3.5,89,0.00,CLR,,0.02,WeatherDisplay:10.37,2013-09-17 03:49:00,
2013-09-16 23:54:00,80.0,76.5,29.99,NNE,24,1.5,3.5,89,0.00,CLR,,0.02,WeatherDisplay:10.37,2013-09-17 03:54:00,
2013-09-16 23:59:00,80.0,76.1,29.99,NNE,33,1.8,3.5,88,0.00,CLR,,0.02,WeatherDisplay:10.37,2013-09-17 03:59:00,